PWSweather.com
Personal Weather Stations
Station Observations
SUBOTICARS
SuboticaYU

SuboticaYU

Lat: 46.1296717, Lon: 19.641551

Elevation: 361

Station Type: Nexus

http://sumeteo.info

High Low Average
Temperature 31.1°F-0.5°C 16.7°F-8.5°C 24.1°F-4.4°C
Dew Point 19.3°F-7.1°C 9.2°F-12.7°C 15.4°F-9.2°C
Winds 6.9 mph 11.1 kmh Calm Calm 2.0 mph W3.2 kmh W
Wind Gusts 9.2 mph14.8 kmh -- 3.0 mph4.8 kmh
Humidity 82% 54% 70%
Pressure 30.01 in1016.3 mb 29.90 in1012.5 mb -
Precipitation 0.00 in0.0 mm - -
Hour Temp Dew Point Humidity Winds Wind Gusts Pressure Precip Precip Rate Daily Precip Total
12:00 AM 23.7°F-4.6°C 17.0°F-8.3°C 75% 3.5 mph NNW5.6 kmh NNW 3.5 mph5.6 kmh 29.90 in1012.5 mb - 0.00 in0.0 mm 0.00 in0.0 mm
12:10 AM 23.2°F-4.9°C 16.4°F-8.7°C 75% 3.5 mph NNW5.6 kmh NNW 3.5 mph5.6 kmh 29.90 in1012.5 mb - 0.00 in0.0 mm 0.00 in0.0 mm
12:15 AM 23.2°F-4.9°C 16.4°F-8.7°C 75% 3.5 mph NNW5.6 kmh NNW 3.5 mph5.6 kmh 29.90 in1012.5 mb - 0.00 in0.0 mm 0.00 in0.0 mm
12:20 AM 23.2°F-4.9°C 16.7°F-8.5°C 76% 2.3 mph NW3.7 kmh NW 3.5 mph5.6 kmh 29.90 in1012.5 mb - 0.00 in0.0 mm 0.00 in0.0 mm
12:25 AM 23.0°F-5.0°C 16.6°F-8.6°C 76% 3.5 mph NNW5.6 kmh NNW 4.6 mph7.4 kmh 29.90 in1012.5 mb - 0.00 in0.0 mm 0.00 in0.0 mm
12:30 AM 22.8°F-5.1°C 16.4°F-8.7°C 76% 3.5 mph NNW5.6 kmh NNW 3.5 mph5.6 kmh 29.90 in1012.5 mb - 0.00 in0.0 mm 0.00 in0.0 mm
12:35 AM 22.6°F-5.2°C 16.8°F-8.4°C 78% 3.5 mph NNW5.6 kmh NNW 3.5 mph5.6 kmh 29.91 in1012.9 mb - 0.00 in0.0 mm 0.00 in0.0 mm
12:40 AM 22.5°F-5.3°C 16.6°F-8.6°C 78% 3.5 mph NW5.6 kmh NW 3.5 mph5.6 kmh 29.91 in1012.9 mb - 0.00 in0.0 mm 0.00 in0.0 mm
12:45 AM 22.3°F-5.4°C 15.9°F-8.9°C 76% 3.5 mph NNW5.6 kmh NNW 3.5 mph5.6 kmh 29.91 in1012.9 mb - 0.00 in0.0 mm 0.00 in0.0 mm
12:50 AM 22.3°F-5.4°C 15.9°F-8.9°C 76% 2.3 mph NW3.7 kmh NW 3.5 mph5.6 kmh 29.91 in1012.9 mb - 0.00 in0.0 mm 0.00 in0.0 mm
12:55 AM 21.9°F-5.6°C 15.2°F-9.3°C 75% 2.3 mph NW3.7 kmh NW 2.3 mph3.7 kmh 29.91 in1012.9 mb - 0.00 in0.0 mm 0.00 in0.0 mm
01:00 AM 21.7°F-5.7°C 15.0°F-9.4°C 75% 1.2 mph NNW1.9 kmh NNW 2.3 mph3.7 kmh 29.91 in1012.9 mb - 0.00 in0.0 mm 0.00 in0.0 mm
01:10 AM 21.4°F-5.9°C 14.7°F-9.6°C 75% 2.3 mph NNW3.7 kmh NNW 2.3 mph3.7 kmh 29.91 in1012.9 mb - 0.00 in0.0 mm 0.00 in0.0 mm
01:15 AM 21.2°F-6.0°C 14.5°F-9.7°C 75% 1.2 mph NNW1.9 kmh NNW 2.3 mph3.7 kmh 29.91 in1012.9 mb - 0.00 in0.0 mm 0.00 in0.0 mm
01:20 AM 20.9°F-6.2°C 14.3°F-9.8°C 75% 1.2 mph WNW1.9 kmh WNW 2.3 mph3.7 kmh 29.91 in1012.9 mb - 0.00 in0.0 mm 0.00 in0.0 mm
01:25 AM 20.8°F-6.2°C 14.2°F-9.9°C 75% 2.3 mph NNW3.7 kmh NNW 3.5 mph5.6 kmh 29.91 in1012.9 mb - 0.00 in0.0 mm 0.00 in0.0 mm
01:30 AM 20.8°F-6.2°C 15.1°F-9.4°C 78% 3.5 mph NNW5.6 kmh NNW 3.5 mph5.6 kmh 29.91 in1012.9 mb - 0.00 in0.0 mm 0.00 in0.0 mm
01:35 AM 20.8°F-6.2°C 15.4°F-9.2°C 79% 3.5 mph NNW5.6 kmh NNW 4.6 mph7.4 kmh 29.91 in1012.9 mb - 0.00 in0.0 mm 0.00 in0.0 mm
01:40 AM 20.8°F-6.2°C 15.6°F-9.1°C 80% 3.5 mph NW5.6 kmh NW 3.5 mph5.6 kmh 29.91 in1012.9 mb - 0.00 in0.0 mm 0.00 in0.0 mm
01:45 AM 20.8°F-6.2°C 15.9°F-8.9°C 81% 4.6 mph NW7.4 kmh NW 5.8 mph9.3 kmh 29.92 in1013.2 mb - 0.00 in0.0 mm 0.00 in0.0 mm
01:50 AM 20.8°F-6.2°C 15.9°F-8.9°C 81% 4.6 mph NNW7.4 kmh NNW 4.6 mph7.4 kmh 29.92 in1013.2 mb - 0.00 in0.0 mm 0.00 in0.0 mm
01:55 AM 20.8°F-6.2°C 15.9°F-8.9°C 81% 3.5 mph NNW5.6 kmh NNW 3.5 mph5.6 kmh 29.92 in1013.2 mb - 0.00 in0.0 mm 0.00 in0.0 mm
02:00 AM 20.8°F-6.2°C 15.9°F-8.9°C 81% 3.5 mph NW5.6 kmh NW 3.5 mph5.6 kmh 29.92 in1013.2 mb - 0.00 in0.0 mm 0.00 in0.0 mm
02:10 AM 20.7°F-6.3°C 15.8°F-9.0°C 81% 3.5 mph NW5.6 kmh NW 5.8 mph9.3 kmh 29.92 in1013.2 mb - 0.00 in0.0 mm 0.00 in0.0 mm
02:15 AM 20.7°F-6.3°C 15.8°F-9.0°C 81% 3.5 mph NNW5.6 kmh NNW 4.6 mph7.4 kmh 29.92 in1013.2 mb - 0.00 in0.0 mm 0.00 in0.0 mm
02:20 AM 20.7°F-6.3°C 15.8°F-9.0°C 81% 3.5 mph NNW5.6 kmh NNW 4.6 mph7.4 kmh 29.92 in1013.2 mb - 0.00 in0.0 mm 0.00 in0.0 mm
02:25 AM 20.8°F-6.2°C 15.9°F-8.9°C 81% 3.5 mph NW5.6 kmh NW 4.6 mph7.4 kmh 29.92 in1013.2 mb - 0.00 in0.0 mm 0.00 in0.0 mm
02:30 AM 20.8°F-6.2°C 15.9°F-8.9°C 81% 3.5 mph NNW5.6 kmh NNW 4.6 mph7.4 kmh 29.92 in1013.2 mb - 0.00 in0.0 mm 0.00 in0.0 mm
02:35 AM 20.8°F-6.2°C 15.9°F-8.9°C 81% 4.6 mph NW7.4 kmh NW 4.6 mph7.4 kmh 29.92 in1013.2 mb - 0.00 in0.0 mm 0.00 in0.0 mm
02:40 AM 21.0°F-6.1°C 16.4°F-8.7°C 82% 3.5 mph NW5.6 kmh NW 3.5 mph5.6 kmh 29.92 in1013.2 mb - 0.00 in0.0 mm 0.00 in0.0 mm
02:45 AM 21.0°F-6.1°C 16.4°F-8.7°C 82% 3.5 mph NNW5.6 kmh NNW 5.8 mph9.3 kmh 29.92 in1013.2 mb - 0.00 in0.0 mm 0.00 in0.0 mm
02:50 AM 21.2°F-6.0°C 16.6°F-8.6°C 82% 5.8 mph NW9.3 kmh NW 6.9 mph11.1 kmh 29.92 in1013.2 mb - 0.00 in0.0 mm 0.00 in0.0 mm
02:55 AM 21.4°F-5.9°C 16.4°F-8.7°C 81% 5.8 mph NNW9.3 kmh NNW 6.9 mph11.1 kmh 29.92 in1013.2 mb - 0.00 in0.0 mm 0.00 in0.0 mm
03:00 AM 21.7°F-5.7°C 16.8°F-8.4°C 81% 3.5 mph NNW5.6 kmh NNW 4.6 mph7.4 kmh 29.92 in1013.2 mb - 0.00 in0.0 mm 0.00 in0.0 mm
03:10 AM 21.7°F-5.7°C 16.5°F-8.6°C 80% 4.6 mph N7.4 kmh N 5.8 mph9.3 kmh 29.93 in1013.5 mb - 0.00 in0.0 mm 0.00 in0.0 mm
03:15 AM 21.6°F-5.8°C 16.4°F-8.7°C 80% 4.6 mph NNW7.4 kmh NNW 5.8 mph9.3 kmh 29.93 in1013.5 mb - 0.00 in0.0 mm 0.00 in0.0 mm
03:20 AM 21.6°F-5.8°C 16.3°F-8.7°C 80% 5.8 mph N9.3 kmh N 6.9 mph11.1 kmh 29.93 in1013.5 mb - 0.00 in0.0 mm 0.00 in0.0 mm
03:25 AM 21.6°F-5.8°C 16.3°F-8.7°C 80% 4.6 mph NNW7.4 kmh NNW 6.9 mph11.1 kmh 29.93 in1013.5 mb - 0.00 in0.0 mm 0.00 in0.0 mm
03:30 AM 21.4°F-5.9°C 15.9°F-8.9°C 79% 3.5 mph NNW5.6 kmh NNW 4.6 mph7.4 kmh 29.93 in1013.5 mb - 0.00 in0.0 mm 0.00 in0.0 mm
03:35 AM 21.2°F-6.0°C 15.7°F-9.1°C 79% 4.6 mph NNW7.4 kmh NNW 5.8 mph9.3 kmh 29.93 in1013.5 mb - 0.00 in0.0 mm 0.00 in0.0 mm
03:40 AM 21.0°F-6.1°C 15.5°F-9.2°C 79% 3.5 mph NNW5.6 kmh NNW 4.6 mph7.4 kmh 29.93 in1013.5 mb - 0.00 in0.0 mm 0.00 in0.0 mm
03:45 AM 20.8°F-6.2°C 15.4°F-9.2°C 79% 3.5 mph NNW5.6 kmh NNW 3.5 mph5.6 kmh 29.92 in1013.2 mb - 0.00 in0.0 mm 0.00 in0.0 mm
03:50 AM 20.7°F-6.3°C 15.2°F-9.3°C 79% 3.5 mph NNW5.6 kmh NNW 3.5 mph5.6 kmh 29.92 in1013.2 mb - 0.00 in0.0 mm 0.00 in0.0 mm
03:55 AM 20.5°F-6.4°C 15.0°F-9.4°C 79% 3.5 mph NNW5.6 kmh NNW 3.5 mph5.6 kmh 29.92 in1013.2 mb - 0.00 in0.0 mm 0.00 in0.0 mm
04:00 AM 20.7°F-6.3°C 15.2°F-9.3°C 79% 2.3 mph NNW3.7 kmh NNW 2.3 mph3.7 kmh 29.92 in1013.2 mb - 0.00 in0.0 mm 0.00 in0.0 mm
04:10 AM 20.5°F-6.4°C 15.0°F-9.4°C 79% 2.3 mph NNW3.7 kmh NNW 3.5 mph5.6 kmh 29.92 in1013.2 mb - 0.00 in0.0 mm 0.00 in0.0 mm
04:15 AM 20.4°F-6.4°C 14.9°F-9.5°C 79% 3.5 mph NNW5.6 kmh NNW 3.5 mph5.6 kmh 29.92 in1013.2 mb - 0.00 in0.0 mm 0.00 in0.0 mm
04:20 AM 20.3°F-6.5°C 14.8°F-9.6°C 79% 3.5 mph NNW5.6 kmh NNW 3.5 mph5.6 kmh 29.92 in1013.2 mb - 0.00 in0.0 mm 0.00 in0.0 mm
04:25 AM 20.3°F-6.5°C 15.1°F-9.4°C 80% 3.5 mph NNW5.6 kmh NNW 3.5 mph5.6 kmh 29.92 in1013.2 mb - 0.00 in0.0 mm 0.00 in0.0 mm
04:30 AM 20.5°F-6.4°C 15.3°F-9.3°C 80% 2.3 mph NW3.7 kmh NW 2.3 mph3.7 kmh 29.92 in1013.2 mb - 0.00 in0.0 mm 0.00 in0.0 mm
04:35 AM 20.7°F-6.3°C 15.5°F-9.2°C 80% 3.5 mph NNW5.6 kmh NNW 3.5 mph5.6 kmh 29.92 in1013.2 mb - 0.00 in0.0 mm 0.00 in0.0 mm
04:40 AM 20.8°F-6.2°C 15.9°F-8.9°C 81% 3.5 mph NNW5.6 kmh NNW 3.5 mph5.6 kmh 29.92 in1013.2 mb - 0.00 in0.0 mm 0.00 in0.0 mm
04:45 AM 20.9°F-6.2°C 16.0°F-8.9°C 81% 3.5 mph NW5.6 kmh NW 3.5 mph5.6 kmh 29.92 in1013.2 mb - 0.00 in0.0 mm 0.00 in0.0 mm
04:50 AM 21.1°F-6.1°C 16.4°F-8.7°C 82% 3.5 mph NNW5.6 kmh NNW 4.6 mph7.4 kmh 29.92 in1013.2 mb - 0.00 in0.0 mm 0.00 in0.0 mm
04:55 AM 21.2°F-6.0°C 16.6°F-8.6°C 82% 3.5 mph N5.6 kmh N 3.5 mph5.6 kmh 29.92 in1013.2 mb - 0.00 in0.0 mm 0.00 in0.0 mm
05:00 AM 21.4°F-5.9°C 16.5°F-8.6°C 81% 3.5 mph N5.6 kmh N 3.5 mph5.6 kmh 29.92 in1013.2 mb - 0.00 in0.0 mm 0.00 in0.0 mm
05:10 AM 21.7°F-5.7°C 16.8°F-8.4°C 81% 3.5 mph NNW5.6 kmh NNW 4.6 mph7.4 kmh 29.92 in1013.2 mb - 0.00 in0.0 mm 0.00 in0.0 mm
05:15 AM 21.7°F-5.7°C 16.8°F-8.4°C 81% 3.5 mph N5.6 kmh N 4.6 mph7.4 kmh 29.92 in1013.2 mb - 0.00 in0.0 mm 0.00 in0.0 mm
05:20 AM 21.7°F-5.7°C 16.5°F-8.6°C 80% 4.6 mph NNW7.4 kmh NNW 5.8 mph9.3 kmh 29.93 in1013.5 mb - 0.00 in0.0 mm 0.00 in0.0 mm
05:25 AM 21.7°F-5.7°C 16.5°F-8.6°C 80% 3.5 mph NW5.6 kmh NW 4.6 mph7.4 kmh 29.93 in1013.5 mb - 0.00 in0.0 mm 0.00 in0.0 mm
05:30 AM 21.7°F-5.7°C 16.5°F-8.6°C 80% 3.5 mph NNW5.6 kmh NNW 4.6 mph7.4 kmh 29.93 in1013.5 mb - 0.00 in0.0 mm 0.00 in0.0 mm
05:35 AM 21.7°F-5.7°C 16.5°F-8.6°C 80% 3.5 mph NNW5.6 kmh NNW 3.5 mph5.6 kmh 29.93 in1013.5 mb - 0.00 in0.0 mm 0.00 in0.0 mm
05:40 AM 21.7°F-5.7°C 16.5°F-8.6°C 80% 3.5 mph NNW5.6 kmh NNW 3.5 mph5.6 kmh 29.93 in1013.5 mb - 0.00 in0.0 mm 0.00 in0.0 mm
05:45 AM 21.8°F-5.7°C 16.6°F-8.6°C 80% 4.6 mph NNW7.4 kmh NNW 5.8 mph9.3 kmh 29.93 in1013.5 mb - 0.00 in0.0 mm 0.00 in0.0 mm
05:50 AM 21.9°F-5.6°C 16.7°F-8.5°C 80% 3.5 mph NNW5.6 kmh NNW 3.5 mph5.6 kmh 29.93 in1013.5 mb - 0.00 in0.0 mm 0.00 in0.0 mm
05:55 AM 22.1°F-5.5°C 16.9°F-8.4°C 80% 3.5 mph NNW5.6 kmh NNW 4.6 mph7.4 kmh 29.93 in1013.5 mb - 0.00 in0.0 mm 0.00 in0.0 mm
06:00 AM 21.9°F-5.6°C 16.4°F-8.7°C 79% 3.5 mph NNW5.6 kmh NNW 3.5 mph5.6 kmh 29.93 in1013.5 mb - 0.00 in0.0 mm 0.00 in0.0 mm
06:10 AM 21.7°F-5.7°C 16.2°F-8.8°C 79% 2.3 mph NW3.7 kmh NW 2.3 mph3.7 kmh 29.93 in1013.5 mb - 0.00 in0.0 mm 0.00 in0.0 mm
06:15 AM 21.6°F-5.8°C 16.1°F-8.8°C 79% 2.3 mph NNW3.7 kmh NNW 3.5 mph5.6 kmh 29.94 in1013.9 mb - 0.00 in0.0 mm 0.00 in0.0 mm
06:20 AM 21.6°F-5.8°C 16.1°F-8.8°C 79% 3.5 mph NNW5.6 kmh NNW 3.5 mph5.6 kmh 29.94 in1013.9 mb - 0.00 in0.0 mm 0.00 in0.0 mm
06:25 AM 21.4°F-5.9°C 15.9°F-8.9°C 79% 2.3 mph NNW3.7 kmh NNW 2.3 mph3.7 kmh 29.94 in1013.9 mb - 0.00 in0.0 mm 0.00 in0.0 mm
06:30 AM 21.4°F-5.9°C 15.9°F-8.9°C 79% 3.5 mph NNW5.6 kmh NNW 3.5 mph5.6 kmh 29.94 in1013.9 mb - 0.00 in0.0 mm 0.00 in0.0 mm
06:35 AM 21.4°F-5.9°C 15.9°F-8.9°C 79% 2.3 mph NW3.7 kmh NW 2.3 mph3.7 kmh 29.95 in1014.2 mb - 0.00 in0.0 mm 0.00 in0.0 mm
06:40 AM 21.2°F-6.0°C 15.7°F-9.1°C 79% 2.3 mph NW3.7 kmh NW 2.3 mph3.7 kmh 29.95 in1014.2 mb - 0.00 in0.0 mm 0.00 in0.0 mm
06:45 AM 21.2°F-6.0°C 15.7°F-9.1°C 79% 2.3 mph NW3.7 kmh NW 2.3 mph3.7 kmh 29.95 in1014.2 mb - 0.00 in0.0 mm 0.00 in0.0 mm
06:50 AM 21.0°F-6.1°C 15.5°F-9.2°C 79% 2.3 mph NW3.7 kmh NW 2.3 mph3.7 kmh 29.95 in1014.2 mb - 0.00 in0.0 mm 0.00 in0.0 mm
06:55 AM 21.0°F-6.1°C 15.5°F-9.2°C 79% 2.3 mph NNW3.7 kmh NNW 2.3 mph3.7 kmh 29.95 in1014.2 mb - 0.00 in0.0 mm 0.00 in0.0 mm
07:00 AM 20.8°F-6.2°C 15.4°F-9.2°C 79% 2.3 mph NNW3.7 kmh NNW 2.3 mph3.7 kmh 29.95 in1014.2 mb - 0.00 in0.0 mm 0.00 in0.0 mm
07:10 AM 20.8°F-6.2°C 15.4°F-9.2°C 79% 2.3 mph NW3.7 kmh NW 2.3 mph3.7 kmh 29.95 in1014.2 mb - 0.00 in0.0 mm 0.00 in0.0 mm
07:15 AM 21.0°F-6.1°C 15.5°F-9.2°C 79% 1.2 mph NNW1.9 kmh NNW 2.3 mph3.7 kmh 29.96 in1014.6 mb - 0.00 in0.0 mm 0.00 in0.0 mm
07:20 AM 20.8°F-6.2°C 15.4°F-9.2°C 79% 2.3 mph NNW3.7 kmh NNW 2.3 mph3.7 kmh 29.96 in1014.6 mb - 0.00 in0.0 mm 0.00 in0.0 mm
07:25 AM 20.7°F-6.3°C 15.2°F-9.3°C 79% 2.3 mph NNW3.7 kmh NNW 2.3 mph3.7 kmh 29.96 in1014.6 mb - 0.00 in0.0 mm 0.00 in0.0 mm
07:30 AM 20.5°F-6.4°C 15.0°F-9.4°C 79% 2.3 mph NW3.7 kmh NW 3.5 mph5.6 kmh 29.97 in1014.9 mb - 0.00 in0.0 mm 0.00 in0.0 mm
07:35 AM 20.5°F-6.4°C 15.0°F-9.4°C 79% 2.3 mph NW3.7 kmh NW 2.3 mph3.7 kmh 29.97 in1014.9 mb - 0.00 in0.0 mm 0.00 in0.0 mm
07:40 AM 20.5°F-6.4°C 15.0°F-9.4°C 79% 2.3 mph NW3.7 kmh NW 2.3 mph3.7 kmh 29.97 in1014.9 mb - 0.00 in0.0 mm 0.00 in0.0 mm
07:45 AM 20.7°F-6.3°C 15.2°F-9.3°C 79% 1.2 mph NW1.9 kmh NW 1.2 mph1.9 kmh 29.97 in1014.9 mb - 0.00 in0.0 mm 0.00 in0.0 mm
07:50 AM 20.7°F-6.3°C 15.2°F-9.3°C 79% 2.3 mph WNW3.7 kmh WNW 2.3 mph3.7 kmh 29.98 in1015.2 mb - 0.00 in0.0 mm 0.00 in0.0 mm
07:55 AM 20.8°F-6.2°C 15.6°F-9.1°C 80% 2.3 mph WNW3.7 kmh WNW 2.3 mph3.7 kmh 29.98 in1015.2 mb - 0.00 in0.0 mm 0.00 in0.0 mm
08:00 AM 21.0°F-6.1°C 15.8°F-9.0°C 80% 2.3 mph NW3.7 kmh NW 2.3 mph3.7 kmh 29.98 in1015.2 mb - 0.00 in0.0 mm 0.00 in0.0 mm
08:10 AM 21.4°F-5.9°C 16.5°F-8.6°C 81% 2.3 mph NNW3.7 kmh NNW 3.5 mph5.6 kmh 29.98 in1015.2 mb - 0.00 in0.0 mm 0.00 in0.0 mm
08:15 AM 21.6°F-5.8°C 16.7°F-8.5°C 81% 4.6 mph NNW7.4 kmh NNW 5.8 mph9.3 kmh 29.98 in1015.2 mb - 0.00 in0.0 mm 0.00 in0.0 mm
08:20 AM 21.7°F-5.7°C 17.1°F-8.3°C 82% 3.5 mph NNW5.6 kmh NNW 4.6 mph7.4 kmh 29.99 in1015.6 mb - 0.00 in0.0 mm 0.00 in0.0 mm
08:25 AM 22.1°F-5.5°C 17.2°F-8.2°C 81% 1.2 mph NNW1.9 kmh NNW 3.5 mph5.6 kmh 29.99 in1015.6 mb - 0.00 in0.0 mm 0.00 in0.0 mm
08:30 AM 22.1°F-5.5°C 17.2°F-8.2°C 81% 2.3 mph NW3.7 kmh NW 2.3 mph3.7 kmh 29.99 in1015.6 mb - 0.00 in0.0 mm 0.00 in0.0 mm
08:35 AM 22.3°F-5.4°C 17.0°F-8.3°C 80% 2.3 mph NW3.7 kmh NW 3.5 mph5.6 kmh 29.99 in1015.6 mb - 0.00 in0.0 mm 0.00 in0.0 mm
08:40 AM 22.5°F-5.3°C 17.2°F-8.2°C 80% 2.3 mph NW3.7 kmh NW 2.3 mph3.7 kmh 29.99 in1015.6 mb - 0.00 in0.0 mm 0.00 in0.0 mm
08:45 AM 22.6°F-5.2°C 17.4°F-8.1°C 80% 3.5 mph NNW5.6 kmh NNW 3.5 mph5.6 kmh 29.99 in1015.6 mb - 0.00 in0.0 mm 0.00 in0.0 mm
08:50 AM 22.8°F-5.1°C 17.6°F-8.0°C 80% 3.5 mph NNW5.6 kmh NNW 3.5 mph5.6 kmh 29.99 in1015.6 mb - 0.00 in0.0 mm 0.00 in0.0 mm
08:55 AM 22.8°F-5.1°C 17.6°F-8.0°C 80% 2.3 mph NW3.7 kmh NW 3.5 mph5.6 kmh 29.99 in1015.6 mb - 0.00 in0.0 mm 0.00 in0.0 mm
09:00 AM 23.2°F-4.9°C 17.9°F-7.8°C 80% 2.3 mph WNW3.7 kmh WNW 3.5 mph5.6 kmh 29.99 in1015.6 mb - 0.00 in0.0 mm 0.00 in0.0 mm
09:10 AM 23.8°F-4.6°C 18.5°F-7.5°C 80% 3.5 mph NNW5.6 kmh NNW 5.8 mph9.3 kmh 29.99 in1015.6 mb - 0.00 in0.0 mm 0.00 in0.0 mm
09:15 AM 24.3°F-4.3°C 19.0°F-7.2°C 80% 5.8 mph NNW9.3 kmh NNW 5.8 mph9.3 kmh 29.99 in1015.6 mb - 0.00 in0.0 mm 0.00 in0.0 mm
09:20 AM 24.6°F-4.1°C 19.3°F-7.1°C 80% 3.5 mph N5.6 kmh N 5.8 mph9.3 kmh 29.99 in1015.6 mb - 0.00 in0.0 mm 0.00 in0.0 mm
09:25 AM 25.0°F-3.9°C 19.1°F-7.2°C 78% 3.5 mph NNW5.6 kmh NNW 3.5 mph5.6 kmh 29.99 in1015.6 mb - 0.00 in0.0 mm 0.00 in0.0 mm
09:30 AM 25.2°F-3.8°C 18.7°F-7.4°C 76% 4.6 mph N7.4 kmh N 5.8 mph9.3 kmh 30.00 in1015.9 mb - 0.00 in0.0 mm 0.00 in0.0 mm
09:35 AM 25.3°F-3.7°C 18.5°F-7.5°C 75% 3.5 mph NNW5.6 kmh NNW 4.6 mph7.4 kmh 30.00 in1015.9 mb - 0.00 in0.0 mm 0.00 in0.0 mm
09:40 AM 25.4°F-3.7°C 18.6°F-7.4°C 75% 3.5 mph NNW5.6 kmh NNW 3.5 mph5.6 kmh 30.00 in1015.9 mb - 0.00 in0.0 mm 0.00 in0.0 mm
09:45 AM 25.7°F-3.5°C 18.9°F-7.3°C 75% 3.5 mph NNW5.6 kmh NNW 3.5 mph5.6 kmh 30.01 in1016.3 mb - 0.00 in0.0 mm 0.00 in0.0 mm
09:50 AM 26.2°F-3.2°C 18.8°F-7.3°C 73% 4.6 mph NNW7.4 kmh NNW 6.9 mph11.1 kmh 30.01 in1016.3 mb - 0.00 in0.0 mm 0.00 in0.0 mm
09:55 AM 26.6°F-3.0°C 18.8°F-7.3°C 72% 4.6 mph N7.4 kmh N 4.6 mph7.4 kmh 30.01 in1016.3 mb - 0.00 in0.0 mm 0.00 in0.0 mm
10:00 AM 26.8°F-2.9°C 19.0°F-7.2°C 72% 3.5 mph N5.6 kmh N 5.8 mph9.3 kmh 30.01 in1016.3 mb - 0.00 in0.0 mm 0.00 in0.0 mm
10:10 AM 26.8°F-2.9°C 19.0°F-7.2°C 72% 3.5 mph NNE5.6 kmh NNE 3.5 mph5.6 kmh 30.00 in1015.9 mb - 0.00 in0.0 mm 0.00 in0.0 mm
10:15 AM 26.8°F-2.9°C 18.6°F-7.4°C 71% 5.8 mph NNW9.3 kmh NNW 5.8 mph9.3 kmh 30.00 in1015.9 mb - 0.00 in0.0 mm 0.00 in0.0 mm
10:20 AM 26.8°F-2.9°C 18.3°F-7.6°C 70% 4.6 mph NNW7.4 kmh NNW 6.9 mph11.1 kmh 30.00 in1015.9 mb - 0.00 in0.0 mm 0.00 in0.0 mm
10:25 AM 27.0°F-2.8°C 18.5°F-7.5°C 70% 3.5 mph NNW5.6 kmh NNW 4.6 mph7.4 kmh 30.00 in1015.9 mb - 0.00 in0.0 mm 0.00 in0.0 mm
10:30 AM 27.1°F-2.7°C 18.6°F-7.4°C 70% 3.5 mph NNW5.6 kmh NNW 5.8 mph9.3 kmh 30.00 in1015.9 mb - 0.00 in0.0 mm 0.00 in0.0 mm
10:35 AM 27.4°F-2.6°C 18.6°F-7.4°C 69% 4.6 mph NW7.4 kmh NW 5.8 mph9.3 kmh 30.00 in1015.9 mb - 0.00 in0.0 mm 0.00 in0.0 mm
10:40 AM 28.1°F-2.2°C 18.9°F-7.3°C 68% 3.5 mph NNE5.6 kmh NNE 3.5 mph5.6 kmh 30.00 in1015.9 mb - 0.00 in0.0 mm 0.00 in0.0 mm
10:45 AM 28.8°F-1.8°C 19.2°F-7.1°C 67% 4.6 mph NNE7.4 kmh NNE 6.9 mph11.1 kmh 30.00 in1015.9 mb - 0.00 in0.0 mm 0.00 in0.0 mm
10:50 AM 29.1°F-1.6°C 19.2°F-7.1°C 66% 3.5 mph NNW5.6 kmh NNW 4.6 mph7.4 kmh 30.00 in1015.9 mb - 0.00 in0.0 mm 0.00 in0.0 mm
10:55 AM 29.3°F-1.5°C 19.3°F-7.1°C 66% 4.6 mph NNW7.4 kmh NNW 4.6 mph7.4 kmh 30.00 in1015.9 mb - 0.00 in0.0 mm 0.00 in0.0 mm
11:00 AM 29.3°F-1.5°C 18.6°F-7.4°C 64% 6.9 mph N11.1 kmh N 6.9 mph11.1 kmh 30.00 in1015.9 mb - 0.00 in0.0 mm 0.00 in0.0 mm
11:10 AM 29.4°F-1.4°C 17.6°F-8.0°C 61% 5.8 mph NE9.3 kmh NE 5.8 mph9.3 kmh 30.00 in1015.9 mb - 0.00 in0.0 mm 0.00 in0.0 mm
11:15 AM 29.5°F-1.4°C 17.7°F-7.9°C 61% 5.8 mph N9.3 kmh N 6.9 mph11.1 kmh 30.00 in1015.9 mb - 0.00 in0.0 mm 0.00 in0.0 mm
11:20 AM 29.3°F-1.5°C 17.1°F-8.3°C 60% 6.9 mph N11.1 kmh N 9.2 mph14.8 kmh 30.00 in1015.9 mb - 0.00 in0.0 mm 0.00 in0.0 mm
11:25 AM 29.5°F-1.4°C 17.3°F-8.2°C 60% 5.8 mph ENE9.3 kmh ENE 5.8 mph9.3 kmh 30.00 in1015.9 mb - 0.00 in0.0 mm 0.00 in0.0 mm
11:30 AM 29.5°F-1.4°C 17.3°F-8.2°C 60% 5.8 mph NNW9.3 kmh NNW 5.8 mph9.3 kmh 30.00 in1015.9 mb - 0.00 in0.0 mm 0.00 in0.0 mm
11:35 AM 29.8°F-1.2°C 17.6°F-8.0°C 60% 4.6 mph NNW7.4 kmh NNW 6.9 mph11.1 kmh 30.00 in1015.9 mb - 0.00 in0.0 mm 0.00 in0.0 mm
11:40 AM 29.7°F-1.3°C 17.5°F-8.1°C 60% 5.8 mph NNW9.3 kmh NNW 5.8 mph9.3 kmh 30.00 in1015.9 mb - 0.00 in0.0 mm 0.00 in0.0 mm
11:45 AM 29.5°F-1.4°C 16.9°F-8.4°C 59% 4.6 mph N7.4 kmh N 3.5 mph5.6 kmh 30.00 in1015.9 mb - 0.00 in0.0 mm 0.00 in0.0 mm
11:50 AM 29.7°F-1.3°C 17.1°F-8.3°C 59% 4.6 mph NNE7.4 kmh NNE 5.8 mph9.3 kmh 30.00 in1015.9 mb - 0.00 in0.0 mm 0.00 in0.0 mm
11:55 AM 29.7°F-1.3°C 17.1°F-8.3°C 59% 4.6 mph NNE7.4 kmh NNE 3.5 mph5.6 kmh 30.00 in1015.9 mb - 0.00 in0.0 mm 0.00 in0.0 mm
12:00 PM 30.0°F-1.1°C 17.4°F-8.1°C 59% 3.5 mph N5.6 kmh N 5.8 mph9.3 kmh 30.00 in1015.9 mb - 0.00 in0.0 mm 0.00 in0.0 mm
12:10 PM 29.8°F-1.2°C 16.8°F-8.4°C 58% 6.9 mph NNW11.1 kmh NNW 9.2 mph14.8 kmh 29.99 in1015.6 mb - 0.00 in0.0 mm 0.00 in0.0 mm
12:15 PM 29.8°F-1.2°C 16.8°F-8.4°C 58% 5.8 mph N9.3 kmh N 6.9 mph11.1 kmh 30.00 in1015.9 mb - 0.00 in0.0 mm 0.00 in0.0 mm
12:20 PM 29.8°F-1.2°C 16.8°F-8.4°C 58% 3.5 mph NNE5.6 kmh NNE 4.6 mph7.4 kmh 30.00 in1015.9 mb - 0.00 in0.0 mm 0.00 in0.0 mm
12:25 PM 30.2°F-1.0°C 17.2°F-8.2°C 58% 4.6 mph NE7.4 kmh NE 6.9 mph11.1 kmh 30.00 in1015.9 mb - 0.00 in0.0 mm 0.00 in0.0 mm
12:30 PM 30.2°F-1.0°C 17.2°F-8.2°C 58% 4.6 mph N7.4 kmh N 4.6 mph7.4 kmh 30.00 in1015.9 mb - 0.00 in0.0 mm 0.00 in0.0 mm
12:35 PM 30.7°F-0.7°C 17.2°F-8.2°C 57% 5.8 mph NW9.3 kmh NW 8.1 mph13.0 kmh 30.00 in1015.9 mb - 0.00 in0.0 mm 0.00 in0.0 mm
12:40 PM 30.7°F-0.7°C 17.3°F-8.2°C 57% 6.9 mph N11.1 kmh N 8.1 mph13.0 kmh 30.00 in1015.9 mb - 0.00 in0.0 mm 0.00 in0.0 mm
12:45 PM 30.2°F-1.0°C 16.0°F-8.9°C 55% 3.5 mph N5.6 kmh N 5.8 mph9.3 kmh 30.00 in1015.9 mb - 0.00 in0.0 mm 0.00 in0.0 mm
12:50 PM 30.7°F-0.7°C 16.9°F-8.4°C 56% 4.6 mph NNE7.4 kmh NNE 6.9 mph11.1 kmh 29.99 in1015.6 mb - 0.00 in0.0 mm 0.00 in0.0 mm
12:55 PM 30.7°F-0.7°C 16.5°F-8.6°C 55% 2.3 mph N3.7 kmh N 3.5 mph5.6 kmh 29.99 in1015.6 mb - 0.00 in0.0 mm 0.00 in0.0 mm
01:00 PM 30.6°F-0.8°C 15.9°F-8.9°C 54% 4.6 mph NNE7.4 kmh NNE 4.6 mph7.4 kmh 29.99 in1015.6 mb - 0.00 in0.0 mm 0.00 in0.0 mm
01:10 PM 30.7°F-0.7°C 16.0°F-8.9°C 54% 4.6 mph N7.4 kmh N 6.9 mph11.1 kmh 29.99 in1015.6 mb - 0.00 in0.0 mm 0.00 in0.0 mm
01:15 PM 30.7°F-0.7°C 16.0°F-8.9°C 54% 4.6 mph NNE7.4 kmh NNE 5.8 mph9.3 kmh 29.99 in1015.6 mb - 0.00 in0.0 mm 0.00 in0.0 mm
01:20 PM 30.7°F-0.7°C 16.0°F-8.9°C 54% 2.3 mph NNE3.7 kmh NNE 4.6 mph7.4 kmh 29.99 in1015.6 mb - 0.00 in0.0 mm 0.00 in0.0 mm
01:25 PM 30.9°F-0.6°C 16.2°F-8.8°C 54% 4.6 mph NE7.4 kmh NE 4.6 mph7.4 kmh 29.99 in1015.6 mb - 0.00 in0.0 mm 0.00 in0.0 mm
01:30 PM 30.9°F-0.6°C 16.2°F-8.8°C 54% 4.6 mph NNE7.4 kmh NNE 4.6 mph7.4 kmh 29.99 in1015.6 mb - 0.00 in0.0 mm 0.00 in0.0 mm
01:35 PM 30.9°F-0.6°C 16.6°F-8.6°C 55% 4.6 mph ENE7.4 kmh ENE 4.6 mph7.4 kmh 29.99 in1015.6 mb - 0.00 in0.0 mm 0.00 in0.0 mm
01:40 PM 31.1°F-0.5°C 16.4°F-8.7°C 54% 3.5 mph N5.6 kmh N 4.6 mph7.4 kmh 29.99 in1015.6 mb - 0.00 in0.0 mm 0.00 in0.0 mm
01:45 PM 30.9°F-0.6°C 16.2°F-8.8°C 54% 4.6 mph NNE7.4 kmh NNE 5.8 mph9.3 kmh 29.99 in1015.6 mb - 0.00 in0.0 mm 0.00 in0.0 mm
01:50 PM 31.1°F-0.5°C 16.8°F-8.4°C 55% 4.6 mph NE7.4 kmh NE 5.8 mph9.3 kmh 29.99 in1015.6 mb - 0.00 in0.0 mm 0.00 in0.0 mm
01:55 PM 31.1°F-0.5°C 17.2°F-8.2°C 56% 3.5 mph NNE5.6 kmh NNE 3.5 mph5.6 kmh 29.99 in1015.6 mb - 0.00 in0.0 mm 0.00 in0.0 mm
02:00 PM 31.1°F-0.5°C 17.2°F-8.2°C 56% 3.5 mph E5.6 kmh E 6.9 mph11.1 kmh 29.99 in1015.6 mb - 0.00 in0.0 mm 0.00 in0.0 mm
02:10 PM 30.9°F-0.6°C 16.6°F-8.6°C 55% 2.3 mph NE3.7 kmh NE 2.3 mph3.7 kmh 29.99 in1015.6 mb - 0.00 in0.0 mm 0.00 in0.0 mm
02:15 PM 30.9°F-0.6°C 17.0°F-8.3°C 56% 2.3 mph ENE3.7 kmh ENE 2.3 mph3.7 kmh 30.00 in1015.9 mb - 0.00 in0.0 mm 0.00 in0.0 mm
02:20 PM 30.9°F-0.6°C 16.6°F-8.6°C 55% 2.3 mph N3.7 kmh N 3.5 mph5.6 kmh 30.00 in1015.9 mb - 0.00 in0.0 mm 0.00 in0.0 mm
02:25 PM 30.7°F-0.7°C 16.0°F-8.9°C 54% 3.5 mph NW5.6 kmh NW 4.6 mph7.4 kmh 30.00 in1015.9 mb - 0.00 in0.0 mm 0.00 in0.0 mm
02:30 PM 30.7°F-0.7°C 16.5°F-8.6°C 55% 3.5 mph NE5.6 kmh NE 3.5 mph5.6 kmh 30.00 in1015.9 mb - 0.00 in0.0 mm 0.00 in0.0 mm
02:35 PM 30.7°F-0.7°C 16.5°F-8.6°C 55% 3.5 mph NNE5.6 kmh NNE 4.6 mph7.4 kmh 30.00 in1015.9 mb - 0.00 in0.0 mm 0.00 in0.0 mm
02:40 PM 30.6°F-0.8°C 15.9°F-8.9°C 54% 2.3 mph NNE3.7 kmh NNE 3.5 mph5.6 kmh 30.00 in1015.9 mb - 0.00 in0.0 mm 0.00 in0.0 mm
02:45 PM 30.7°F-0.7°C 16.0°F-8.9°C 54% 3.5 mph NNE5.6 kmh NNE 4.6 mph7.4 kmh 30.00 in1015.9 mb - 0.00 in0.0 mm 0.00 in0.0 mm
02:50 PM 30.6°F-0.8°C 15.9°F-8.9°C 54% 2.3 mph NNE3.7 kmh NNE 2.3 mph3.7 kmh 30.00 in1015.9 mb - 0.00 in0.0 mm 0.00 in0.0 mm
02:55 PM 30.6°F-0.8°C 16.3°F-8.7°C 55% 2.3 mph NNE3.7 kmh NNE 2.3 mph3.7 kmh 30.00 in1015.9 mb - 0.00 in0.0 mm 0.00 in0.0 mm
03:00 PM 30.6°F-0.8°C 15.9°F-8.9°C 54% 3.5 mph NNE5.6 kmh NNE 3.5 mph5.6 kmh 30.00 in1015.9 mb - 0.00 in0.0 mm 0.00 in0.0 mm
03:10 PM 30.4°F-0.9°C 16.1°F-8.8°C 55% 2.3 mph N3.7 kmh N 3.5 mph5.6 kmh 30.00 in1015.9 mb - 0.00 in0.0 mm 0.00 in0.0 mm
03:15 PM 30.4°F-0.9°C 16.1°F-8.8°C 55% Calm Calm 2.3 mph3.7 kmh 30.00 in1015.9 mb - 0.00 in0.0 mm 0.00 in0.0 mm
03:20 PM 30.4°F-0.9°C 16.1°F-8.8°C 55% 1.2 mph NNW1.9 kmh NNW 2.3 mph3.7 kmh 30.00 in1015.9 mb - 0.00 in0.0 mm 0.00 in0.0 mm
03:25 PM 30.2°F-1.0°C 16.0°F-8.9°C 55% 2.3 mph NNE3.7 kmh NNE 3.5 mph5.6 kmh 30.00 in1015.9 mb - 0.00 in0.0 mm 0.00 in0.0 mm
03:30 PM 30.2°F-1.0°C 16.0°F-8.9°C 55% 1.2 mph 1.9 kmh 2.3 mph3.7 kmh 30.00 in1015.9 mb - 0.00 in0.0 mm 0.00 in0.0 mm
03:35 PM 30.1°F-1.1°C 16.3°F-8.7°C 56% Calm Calm 1.2 mph1.9 kmh 30.00 in1015.9 mb - 0.00 in0.0 mm 0.00 in0.0 mm
03:40 PM 30.0°F-1.1°C 16.2°F-8.8°C 56% 1.2 mph NNE1.9 kmh NNE 2.3 mph3.7 kmh 30.00 in1015.9 mb - 0.00 in0.0 mm 0.00 in0.0 mm
03:45 PM 29.8°F-1.2°C 16.0°F-8.9°C 56% 1.2 mph N1.9 kmh N 2.3 mph3.7 kmh 30.00 in1015.9 mb - 0.00 in0.0 mm 0.00 in0.0 mm
03:50 PM 29.8°F-1.2°C 16.0°F-8.9°C 56% Calm Calm 2.3 mph3.7 kmh 30.00 in1015.9 mb - 0.00 in0.0 mm 0.00 in0.0 mm
03:55 PM 29.8°F-1.2°C 16.0°F-8.9°C 56% Calm Calm 1.2 mph1.9 kmh 30.00 in1015.9 mb - 0.00 in0.0 mm 0.00 in0.0 mm
04:00 PM 29.7°F-1.3°C 16.3°F-8.7°C 57% Calm Calm -- 30.00 in1015.9 mb - 0.00 in0.0 mm 0.00 in0.0 mm
04:10 PM 29.5°F-1.4°C 16.1°F-8.8°C 57% Calm Calm -- 30.00 in1015.9 mb - 0.00 in0.0 mm 0.00 in0.0 mm
04:15 PM 29.3°F-1.5°C 16.3°F-8.7°C 58% Calm Calm -- 30.00 in1015.9 mb - 0.00 in0.0 mm 0.00 in0.0 mm
04:20 PM 29.3°F-1.5°C 16.3°F-8.7°C 58% Calm Calm -- 30.00 in1015.9 mb - 0.00 in0.0 mm 0.00 in0.0 mm
04:25 PM 29.1°F-1.6°C 16.2°F-8.8°C 58% 1.2 mph NNW1.9 kmh NNW 1.2 mph1.9 kmh 30.00 in1015.9 mb - 0.00 in0.0 mm 0.00 in0.0 mm
04:30 PM 28.9°F-1.7°C 16.0°F-8.9°C 58% 2.3 mph NW3.7 kmh NW 2.3 mph3.7 kmh 30.00 in1015.9 mb - 0.00 in0.0 mm 0.00 in0.0 mm
04:35 PM 28.9°F-1.7°C 16.0°F-8.9°C 58% 1.2 mph NW1.9 kmh NW 1.2 mph1.9 kmh 30.01 in1016.3 mb - 0.00 in0.0 mm 0.00 in0.0 mm
04:40 PM 28.9°F-1.7°C 16.4°F-8.7°C 59% Calm Calm -- 30.01 in1016.3 mb - 0.00 in0.0 mm 0.00 in0.0 mm
04:45 PM 28.8°F-1.8°C 16.2°F-8.8°C 59% Calm Calm 1.2 mph1.9 kmh 30.01 in1016.3 mb - 0.00 in0.0 mm 0.00 in0.0 mm
04:50 PM 28.8°F-1.8°C 16.2°F-8.8°C 59% Calm Calm 1.2 mph1.9 kmh 30.00 in1015.9 mb - 0.00 in0.0 mm 0.00 in0.0 mm
04:55 PM 28.6°F-1.9°C 16.1°F-8.8°C 59% Calm Calm -- 30.00 in1015.9 mb - 0.00 in0.0 mm 0.00 in0.0 mm
05:00 PM 28.6°F-1.9°C 16.1°F-8.8°C 59% Calm Calm -- 30.00 in1015.9 mb - 0.00 in0.0 mm 0.00 in0.0 mm
05:10 PM 28.2°F-2.1°C 15.7°F-9.1°C 59% Calm Calm -- 30.00 in1015.9 mb - 0.00 in0.0 mm 0.00 in0.0 mm
05:15 PM 28.2°F-2.1°C 15.7°F-9.1°C 59% Calm Calm -- 30.00 in1015.9 mb - 0.00 in0.0 mm 0.00 in0.0 mm
05:20 PM 28.0°F-2.2°C 15.9°F-8.9°C 60% Calm Calm -- 30.01 in1016.3 mb - 0.00 in0.0 mm 0.00 in0.0 mm
05:25 PM 28.0°F-2.2°C 15.9°F-8.9°C 60% Calm Calm -- 30.01 in1016.3 mb - 0.00 in0.0 mm 0.00 in0.0 mm
05:30 PM 27.9°F-2.3°C 16.1°F-8.8°C 61% Calm Calm -- 30.01 in1016.3 mb - 0.00 in0.0 mm 0.00 in0.0 mm
05:35 PM 27.7°F-2.4°C 16.0°F-8.9°C 61% Calm Calm -- 30.00 in1015.9 mb - 0.00 in0.0 mm 0.00 in0.0 mm
05:40 PM 27.7°F-2.4°C 15.6°F-9.1°C 60% Calm Calm -- 30.00 in1015.9 mb - 0.00 in0.0 mm 0.00 in0.0 mm
05:45 PM 27.5°F-2.5°C 15.8°F-9.0°C 61% Calm Calm -- 30.00 in1015.9 mb - 0.00 in0.0 mm 0.00 in0.0 mm
05:50 PM 27.3°F-2.6°C 15.6°F-9.1°C 61% Calm Calm 1.2 mph1.9 kmh 30.00 in1015.9 mb - 0.00 in0.0 mm 0.00 in0.0 mm
05:55 PM 27.2°F-2.7°C 15.9°F-8.9°C 62% Calm Calm -- 30.00 in1015.9 mb - 0.00 in0.0 mm 0.00 in0.0 mm
06:00 PM 27.0°F-2.8°C 15.7°F-9.1°C 62% Calm Calm -- 30.00 in1015.9 mb - 0.00 in0.0 mm 0.00 in0.0 mm
06:10 PM 26.6°F-3.0°C 15.7°F-9.1°C 63% Calm Calm -- 30.00 in1015.9 mb - 0.00 in0.0 mm 0.00 in0.0 mm
06:15 PM 26.6°F-3.0°C 15.7°F-9.1°C 63% Calm Calm -- 30.00 in1015.9 mb - 0.00 in0.0 mm 0.00 in0.0 mm
06:20 PM 26.2°F-3.2°C 15.3°F-9.3°C 63% Calm Calm 1.2 mph1.9 kmh 30.00 in1015.9 mb - 0.00 in0.0 mm 0.00 in0.0 mm
06:25 PM 26.1°F-3.3°C 15.2°F-9.3°C 63% Calm Calm -- 30.00 in1015.9 mb - 0.00 in0.0 mm 0.00 in0.0 mm
06:30 PM 25.8°F-3.4°C 15.3°F-9.3°C 64% Calm Calm -- 30.00 in1015.9 mb - 0.00 in0.0 mm 0.00 in0.0 mm
06:35 PM 25.7°F-3.5°C 15.2°F-9.3°C 64% Calm Calm -- 30.00 in1015.9 mb - 0.00 in0.0 mm 0.00 in0.0 mm
06:40 PM 25.3°F-3.7°C 14.9°F-9.5°C 64% Calm Calm -- 30.00 in1015.9 mb - 0.00 in0.0 mm 0.00 in0.0 mm
06:45 PM 25.0°F-3.9°C 14.5°F-9.7°C 64% Calm Calm 1.2 mph1.9 kmh 30.00 in1015.9 mb - 0.00 in0.0 mm 0.00 in0.0 mm
06:50 PM 24.6°F-4.1°C 14.2°F-9.9°C 64% 1.2 mph NW1.9 kmh NW 1.2 mph1.9 kmh 30.00 in1015.9 mb - 0.00 in0.0 mm 0.00 in0.0 mm
06:55 PM 24.2°F-4.3°C 13.7°F-10.2°C 64% Calm Calm -- 30.00 in1015.9 mb - 0.00 in0.0 mm 0.00 in0.0 mm
07:00 PM 23.9°F-4.5°C 13.8°F-10.1°C 65% Calm Calm -- 29.99 in1015.6 mb - 0.00 in0.0 mm 0.00 in0.0 mm
07:10 PM 23.4°F-4.8°C 13.3°F-10.4°C 65% 1.2 mph NW1.9 kmh NW 1.2 mph1.9 kmh 29.99 in1015.6 mb - 0.00 in0.0 mm 0.00 in0.0 mm
07:15 PM 23.0°F-5.0°C 13.0°F-10.6°C 65% Calm Calm -- 29.99 in1015.6 mb - 0.00 in0.0 mm 0.00 in0.0 mm
07:20 PM 22.6°F-5.2°C 12.6°F-10.8°C 65% Calm Calm 1.2 mph1.9 kmh 29.98 in1015.2 mb - 0.00 in0.0 mm 0.00 in0.0 mm
07:25 PM 22.4°F-5.3°C 12.4°F-10.9°C 65% Calm Calm 1.2 mph1.9 kmh 29.98 in1015.2 mb - 0.00 in0.0 mm 0.00 in0.0 mm
07:30 PM 22.1°F-5.5°C 12.5°F-10.8°C 66% 1.2 mph NW1.9 kmh NW 1.2 mph1.9 kmh 29.99 in1015.6 mb - 0.00 in0.0 mm 0.00 in0.0 mm
07:35 PM 21.9°F-5.6°C 12.3°F-10.9°C 66% 1.2 mph NW1.9 kmh NW 1.2 mph1.9 kmh 29.99 in1015.6 mb - 0.00 in0.0 mm 0.00 in0.0 mm
07:40 PM 21.7°F-5.7°C 12.1°F-11.1°C 66% 1.2 mph NW1.9 kmh NW 1.2 mph1.9 kmh 29.99 in1015.6 mb - 0.00 in0.0 mm 0.00 in0.0 mm
07:45 PM 21.6°F-5.8°C 11.9°F-11.2°C 66% 1.2 mph NW1.9 kmh NW 1.2 mph1.9 kmh 29.99 in1015.6 mb - 0.00 in0.0 mm 0.00 in0.0 mm
07:50 PM 21.0°F-6.1°C 12.1°F-11.1°C 68% 1.2 mph NW1.9 kmh NW 1.2 mph1.9 kmh 29.99 in1015.6 mb - 0.00 in0.0 mm 0.00 in0.0 mm
07:55 PM 20.7°F-6.3°C 11.8°F-11.2°C 68% Calm Calm -- 29.99 in1015.6 mb - 0.00 in0.0 mm 0.00 in0.0 mm
08:00 PM 20.4°F-6.4°C 11.5°F-11.4°C 68% Calm Calm 1.2 mph1.9 kmh 29.99 in1015.6 mb - 0.00 in0.0 mm 0.00 in0.0 mm
08:10 PM 20.1°F-6.6°C 11.6°F-11.3°C 69% Calm Calm -- 29.99 in1015.6 mb - 0.00 in0.0 mm 0.00 in0.0 mm
08:15 PM 19.9°F-6.7°C 11.4°F-11.4°C 69% Calm Calm 1.2 mph1.9 kmh 29.99 in1015.6 mb - 0.00 in0.0 mm 0.00 in0.0 mm
08:20 PM 19.8°F-6.8°C 11.6°F-11.3°C 70% Calm Calm -- 29.99 in1015.6 mb - 0.00 in0.0 mm 0.00 in0.0 mm
08:25 PM 19.5°F-6.9°C 11.3°F-11.5°C 70% Calm Calm -- 29.99 in1015.6 mb - 0.00 in0.0 mm 0.00 in0.0 mm
08:30 PM 19.4°F-7.0°C 11.5°F-11.4°C 71% Calm Calm -- 29.98 in1015.2 mb - 0.00 in0.0 mm 0.00 in0.0 mm
08:35 PM 19.2°F-7.1°C 11.4°F-11.4°C 71% Calm Calm -- 29.98 in1015.2 mb - 0.00 in0.0 mm 0.00 in0.0 mm
08:40 PM 19.0°F-7.2°C 10.9°F-11.7°C 70% 1.2 mph NW1.9 kmh NW 1.2 mph1.9 kmh 29.98 in1015.2 mb - 0.00 in0.0 mm 0.00 in0.0 mm
08:45 PM 18.9°F-7.3°C 10.7°F-11.8°C 70% Calm Calm -- 29.98 in1015.2 mb - 0.00 in0.0 mm 0.00 in0.0 mm
08:50 PM 19.0°F-7.2°C 11.2°F-11.6°C 71% Calm Calm -- 29.98 in1015.2 mb - 0.00 in0.0 mm 0.00 in0.0 mm
08:55 PM 19.2°F-7.1°C 11.4°F-11.4°C 71% 1.2 mph NW1.9 kmh NW 2.3 mph3.7 kmh 29.98 in1015.2 mb - 0.00 in0.0 mm 0.00 in0.0 mm
09:00 PM 19.3°F-7.1°C 11.4°F-11.4°C 71% 1.2 mph NW1.9 kmh NW 1.2 mph1.9 kmh 29.98 in1015.2 mb - 0.00 in0.0 mm 0.00 in0.0 mm
09:10 PM 20.1°F-6.6°C 12.8°F-10.7°C 73% 1.2 mph NW1.9 kmh NW 1.2 mph1.9 kmh 29.98 in1015.2 mb - 0.00 in0.0 mm 0.00 in0.0 mm
09:15 PM 20.5°F-6.4°C 13.2°F-10.4°C 73% 1.2 mph W1.9 kmh W 3.5 mph5.6 kmh 29.98 in1015.2 mb - 0.00 in0.0 mm 0.00 in0.0 mm
09:20 PM 20.8°F-6.2°C 13.5°F-10.3°C 73% 1.2 mph W1.9 kmh W 2.3 mph3.7 kmh 29.97 in1014.9 mb - 0.00 in0.0 mm 0.00 in0.0 mm
09:25 PM 20.8°F-6.2°C 13.5°F-10.3°C 73% 2.3 mph WNW3.7 kmh WNW 2.3 mph3.7 kmh 29.97 in1014.9 mb - 0.00 in0.0 mm 0.00 in0.0 mm
09:30 PM 20.9°F-6.2°C 13.9°F-10.1°C 74% 1.2 mph WNW1.9 kmh WNW 2.3 mph3.7 kmh 29.97 in1014.9 mb - 0.00 in0.0 mm 0.00 in0.0 mm
09:35 PM 21.0°F-6.1°C 14.0°F-10.0°C 74% 1.2 mph WNW1.9 kmh WNW 2.3 mph3.7 kmh 29.96 in1014.6 mb - 0.00 in0.0 mm 0.00 in0.0 mm
09:40 PM 21.0°F-6.1°C 13.7°F-10.2°C 73% 1.2 mph SW1.9 kmh SW 1.2 mph1.9 kmh 29.96 in1014.6 mb - 0.00 in0.0 mm 0.00 in0.0 mm
09:45 PM 21.2°F-6.0°C 13.6°F-10.2°C 72% 1.2 mph SW1.9 kmh SW 1.2 mph1.9 kmh 29.96 in1014.6 mb - 0.00 in0.0 mm 0.00 in0.0 mm
09:50 PM 21.2°F-6.0°C 13.6°F-10.2°C 72% 1.2 mph SW1.9 kmh SW 1.2 mph1.9 kmh 29.97 in1014.9 mb - 0.00 in0.0 mm 0.00 in0.0 mm
09:55 PM 21.0°F-6.1°C 13.4°F-10.3°C 72% Calm Calm -- 29.97 in1014.9 mb - 0.00 in0.0 mm 0.00 in0.0 mm
10:00 PM 21.0°F-6.1°C 13.4°F-10.3°C 72% 1.2 mph SW1.9 kmh SW 1.2 mph1.9 kmh 29.96 in1014.6 mb - 0.00 in0.0 mm 0.00 in0.0 mm
10:10 PM 20.7°F-6.3°C 12.7°F-10.7°C 71% 1.2 mph WSW1.9 kmh WSW 1.2 mph1.9 kmh 29.96 in1014.6 mb - 0.00 in0.0 mm 0.00 in0.0 mm
10:15 PM 20.3°F-6.5°C 12.4°F-10.9°C 71% Calm Calm -- 29.96 in1014.6 mb - 0.00 in0.0 mm 0.00 in0.0 mm
10:20 PM 20.2°F-6.6°C 11.9°F-11.2°C 70% Calm Calm -- 29.96 in1014.6 mb - 0.00 in0.0 mm 0.00 in0.0 mm
10:25 PM 19.9°F-6.7°C 11.7°F-11.3°C 70% Calm Calm -- 29.96 in1014.6 mb - 0.00 in0.0 mm 0.00 in0.0 mm
10:30 PM 19.8°F-6.8°C 11.6°F-11.3°C 70% Calm Calm -- 29.96 in1014.6 mb - 0.00 in0.0 mm 0.00 in0.0 mm
10:35 PM 19.4°F-7.0°C 11.2°F-11.6°C 70% Calm Calm 1.2 mph1.9 kmh 29.96 in1014.6 mb - 0.00 in0.0 mm 0.00 in0.0 mm
10:40 PM 19.2°F-7.1°C 11.0°F-11.7°C 70% Calm Calm -- 29.96 in1014.6 mb - 0.00 in0.0 mm 0.00 in0.0 mm
10:45 PM 19.0°F-7.2°C 10.9°F-11.7°C 70% Calm Calm -- 29.96 in1014.6 mb - 0.00 in0.0 mm 0.00 in0.0 mm
10:50 PM 18.7°F-7.4°C 10.5°F-11.9°C 70% Calm Calm -- 29.96 in1014.6 mb - 0.00 in0.0 mm 0.00 in0.0 mm
10:55 PM 18.6°F-7.4°C 10.4°F-12.0°C 70% 1.2 mph WSW1.9 kmh WSW 1.2 mph1.9 kmh 29.96 in1014.6 mb - 0.00 in0.0 mm 0.00 in0.0 mm
11:00 PM 18.5°F-7.5°C 10.3°F-12.1°C 70% 1.2 mph WSW1.9 kmh WSW 1.2 mph1.9 kmh 29.96 in1014.6 mb - 0.00 in0.0 mm 0.00 in0.0 mm
11:10 PM 18.3°F-7.6°C 11.1°F-11.6°C 73% Calm Calm -- 29.96 in1014.6 mb - 0.00 in0.0 mm 0.00 in0.0 mm
11:15 PM 18.0°F-7.8°C 10.5°F-11.9°C 72% Calm Calm -- 29.95 in1014.2 mb - 0.00 in0.0 mm 0.00 in0.0 mm
11:20 PM 17.8°F-7.9°C 10.3°F-12.1°C 72% Calm Calm -- 29.95 in1014.2 mb - 0.00 in0.0 mm 0.00 in0.0 mm
11:25 PM 17.5°F-8.1°C 10.0°F-12.2°C 72% Calm Calm -- 29.95 in1014.2 mb - 0.00 in0.0 mm 0.00 in0.0 mm
11:30 PM 17.2°F-8.2°C 9.8°F-12.3°C 72% Calm Calm -- 29.95 in1014.2 mb - 0.00 in0.0 mm 0.00 in0.0 mm
11:35 PM 17.1°F-8.3°C 9.3°F-12.6°C 71% Calm Calm -- 29.95 in1014.2 mb - 0.00 in0.0 mm 0.00 in0.0 mm
11:40 PM 17.1°F-8.3°C 9.6°F-12.4°C 72% Calm Calm -- 29.95 in1014.2 mb - 0.00 in0.0 mm 0.00 in0.0 mm
11:45 PM 16.7°F-8.5°C 9.2°F-12.7°C 72% 1.2 mph WSW1.9 kmh WSW 2.3 mph3.7 kmh 29.95 in1014.2 mb - 0.00 in0.0 mm 0.00 in0.0 mm
11:50 PM 16.7°F-8.5°C 9.5°F-12.5°C 73% Calm Calm -- 29.94 in1013.9 mb - 0.00 in0.0 mm 0.00 in0.0 mm
11:55 PM 16.7°F-8.5°C 9.5°F-12.5°C 73% 1.2 mph WNW1.9 kmh WNW 1.2 mph1.9 kmh 29.94 in1013.9 mb - 0.00 in0.0 mm 0.00 in0.0 mm